sensor_id;sensor_type;location;lat;lon;timestamp;P1;durP1;ratioP1;P2;durP2;ratioP2
16029;SDS011;34770;49.272;11.070;2023-06-14T00:02:16;6.03;;;4.40;;
16029;SDS011;34770;49.272;11.070;2023-06-14T00:04:41;5.47;;;4.97;;
16029;SDS011;34770;49.272;11.070;2023-06-14T00:07:08;6.85;;;4.68;;
16029;SDS011;34770;49.272;11.070;2023-06-14T00:09:34;5.20;;;4.72;;
16029;SDS011;34770;49.272;11.070;2023-06-14T00:12:00;5.03;;;4.22;;
16029;SDS011;34770;49.272;11.070;2023-06-14T00:14:25;6.63;;;4.55;;
16029;SDS011;34770;49.272;11.070;2023-06-14T00:16:50;7.10;;;4.32;;
16029;SDS011;34770;49.272;11.070;2023-06-14T00:19:17;5.03;;;4.20;;
16029;SDS011;34770;49.272;11.070;2023-06-14T00:21:44;5.60;;;4.50;;
16029;SDS011;34770;49.272;11.070;2023-06-14T00:24:10;6.43;;;4.68;;
16029;SDS011;34770;49.272;11.070;2023-06-14T00:26:35;4.85;;;4.43;;
16029;SDS011;34770;49.272;11.070;2023-06-14T00:29:01;4.65;;;4.25;;
16029;SDS011;34770;49.272;11.070;2023-06-14T00:31:26;5.03;;;4.32;;
16029;SDS011;34770;49.272;11.070;2023-06-14T00:33:52;6.70;;;4.00;;
16029;SDS011;34770;49.272;11.070;2023-06-14T00:36:17;4.03;;;3.63;;
16029;SDS011;34770;49.272;11.070;2023-06-14T00:38:42;5.03;;;4.55;;
16029;SDS011;34770;49.272;11.070;2023-06-14T00:41:08;5.70;;;4.53;;
16029;SDS011;34770;49.272;11.070;2023-06-14T00:43:33;5.07;;;3.78;;
16029;SDS011;34770;49.272;11.070;2023-06-14T00:46:00;5.47;;;4.22;;
16029;SDS011;34770;49.272;11.070;2023-06-14T00:48:25;4.53;;;3.85;;
16029;SDS011;34770;49.272;11.070;2023-06-14T00:50:51;5.40;;;4.85;;
16029;SDS011;34770;49.272;11.070;2023-06-14T00:53:17;5.97;;;4.55;;
16029;SDS011;34770;49.272;11.070;2023-06-14T00:55:45;5.47;;;4.25;;
16029;SDS011;34770;49.272;11.070;2023-06-14T00:58:11;4.35;;;3.95;;
16029;SDS011;34770;49.272;11.070;2023-06-14T01:00:37;5.00;;;4.50;;
16029;SDS011;34770;49.272;11.070;2023-06-14T01:03:02;3.80;;;3.50;;
16029;SDS011;34770;49.272;11.070;2023-06-14T01:05:28;5.05;;;4.55;;
16029;SDS011;34770;49.272;11.070;2023-06-14T01:13:33;5.03;;;4.53;;
16029;SDS011;34770;49.272;11.070;2023-06-14T01:16:00;4.90;;;4.47;;
16029;SDS011;34770;49.272;11.070;2023-06-14T01:18:27;5.45;;;4.50;;
16029;SDS011;34770;49.272;11.070;2023-06-14T01:20:55;6.97;;;4.97;;
16029;SDS011;34770;49.272;11.070;2023-06-14T01:23:21;6.50;;;5.05;;
16029;SDS011;34770;49.272;11.070;2023-06-14T01:25:48;4.95;;;4.50;;
16029;SDS011;34770;49.272;11.070;2023-06-14T01:28:17;5.47;;;4.97;;
16029;SDS011;34770;49.272;11.070;2023-06-14T01:30:44;6.57;;;4.75;;
16029;SDS011;34770;49.272;11.070;2023-06-14T01:33:20;6.78;;;4.80;;
16029;SDS011;34770;49.272;11.070;2023-06-14T01:35:47;6.93;;;5.03;;
16029;SDS011;34770;49.272;11.070;2023-06-14T01:38:15;5.28;;;4.78;;
16029;SDS011;34770;49.272;11.070;2023-06-14T01:40:44;5.03;;;4.60;;
16029;SDS011;34770;49.272;11.070;2023-06-14T01:43:10;5.97;;;5.38;;
16029;SDS011;34770;49.272;11.070;2023-06-14T01:45:38;5.22;;;4.72;;
16029;SDS011;34770;49.272;11.070;2023-06-14T01:48:06;6.40;;;4.85;;
16029;SDS011;34770;49.272;11.070;2023-06-14T01:50:32;5.47;;;4.97;;
16029;SDS011;34770;49.272;11.070;2023-06-14T01:52:57;6.78;;;5.13;;
16029;SDS011;34770;49.272;11.070;2023-06-14T01:55:23;6.88;;;5.43;;
16029;SDS011;34770;49.272;11.070;2023-06-14T01:57:53;6.85;;;5.22;;
16029;SDS011;34770;49.272;11.070;2023-06-14T02:00:19;5.95;;;5.35;;
16029;SDS011;34770;49.272;11.070;2023-06-14T02:02:45;8.07;;;5.63;;
16029;SDS011;34770;49.272;11.070;2023-06-14T02:05:14;7.55;;;6.05;;
16029;SDS011;34770;49.272;11.070;2023-06-14T02:07:40;6.80;;;5.65;;
16029;SDS011;34770;49.272;11.070;2023-06-14T02:10:06;6.57;;;5.38;;
16029;SDS011;34770;49.272;11.070;2023-06-14T02:12:32;8.82;;;6.00;;
16029;SDS011;34770;49.272;11.070;2023-06-14T02:14:57;6.47;;;5.50;;
16029;SDS011;34770;49.272;11.070;2023-06-14T02:17:23;7.85;;;6.65;;
16029;SDS011;34770;49.272;11.070;2023-06-14T02:19:48;7.88;;;5.53;;
16029;SDS011;34770;49.272;11.070;2023-06-14T02:22:14;6.72;;;5.88;;
16029;SDS011;34770;49.272;11.070;2023-06-14T02:24:41;7.25;;;6.55;;
16029;SDS011;34770;49.272;11.070;2023-06-14T02:27:07;6.57;;;5.90;;
16029;SDS011;34770;49.272;11.070;2023-06-14T02:29:35;6.18;;;5.63;;
16029;SDS011;34770;49.272;11.070;2023-06-14T02:32:00;9.43;;;5.90;;
16029;SDS011;34770;49.272;11.070;2023-06-14T02:34:26;6.45;;;5.80;;
16029;SDS011;34770;49.272;11.070;2023-06-14T02:36:51;5.70;;;4.97;;
16029;SDS011;34770;49.272;11.070;2023-06-14T02:39:17;7.15;;;6.25;;
16029;SDS011;34770;49.272;11.070;2023-06-14T02:41:45;5.93;;;5.32;;
16029;SDS011;34770;49.272;11.070;2023-06-14T02:44:12;6.05;;;5.43;;
16029;SDS011;34770;49.272;11.070;2023-06-14T02:46:38;8.25;;;5.90;;
16029;SDS011;34770;49.272;11.070;2023-06-14T02:49:04;7.43;;;5.45;;
16029;SDS011;34770;49.272;11.070;2023-06-14T02:51:29;7.80;;;5.47;;
16029;SDS011;34770;49.272;11.070;2023-06-14T02:53:54;6.10;;;5.45;;
16029;SDS011;34770;49.272;11.070;2023-06-14T02:56:20;6.18;;;5.40;;
16029;SDS011;34770;49.272;11.070;2023-06-14T02:58:47;6.20;;;5.65;;
16029;SDS011;34770;49.272;11.070;2023-06-14T03:01:13;7.13;;;5.35;;
16029;SDS011;34770;49.272;11.070;2023-06-14T03:03:39;6.13;;;5.55;;
16029;SDS011;34770;49.272;11.070;2023-06-14T03:06:05;6.65;;;5.93;;
16029;SDS011;34770;49.272;11.070;2023-06-14T03:08:31;6.63;;;6.03;;
16029;SDS011;34770;49.272;11.070;2023-06-14T03:11:03;9.07;;;6.30;;
16029;SDS011;34770;49.272;11.070;2023-06-14T03:13:30;6.78;;;6.07;;
16029;SDS011;34770;49.272;11.070;2023-06-14T03:15:57;12.20;;;7.00;;
16029;SDS011;34770;49.272;11.070;2023-06-14T03:18:22;9.32;;;6.25;;
16029;SDS011;34770;49.272;11.070;2023-06-14T03:20:48;6.50;;;5.90;;
16029;SDS011;34770;49.272;11.070;2023-06-14T03:23:14;6.70;;;5.40;;
16029;SDS011;34770;49.272;11.070;2023-06-14T03:25:39;7.50;;;6.03;;
16029;SDS011;34770;49.272;11.070;2023-06-14T03:28:07;6.32;;;5.72;;
16029;SDS011;34770;49.272;11.070;2023-06-14T03:30:32;8.30;;;6.05;;
16029;SDS011;34770;49.272;11.070;2023-06-14T03:32:58;6.53;;;5.85;;
16029;SDS011;34770;49.272;11.070;2023-06-14T03:35:26;7.03;;;6.32;;
16029;SDS011;34770;49.272;11.070;2023-06-14T03:37:53;6.78;;;6.00;;
16029;SDS011;34770;49.272;11.070;2023-06-14T03:40:20;7.55;;;6.03;;
16029;SDS011;34770;49.272;11.070;2023-06-14T03:42:46;6.65;;;5.72;;
16029;SDS011;34770;49.272;11.070;2023-06-14T03:45:12;6.15;;;5.45;;
16029;SDS011;34770;49.272;11.070;2023-06-14T03:47:37;6.05;;;5.53;;
16029;SDS011;34770;49.272;11.070;2023-06-14T03:50:03;6.90;;;5.97;;
16029;SDS011;34770;49.272;11.070;2023-06-14T03:52:29;6.10;;;5.57;;
16029;SDS011;34770;49.272;11.070;2023-06-14T03:54:56;6.60;;;6.00;;
16029;SDS011;34770;49.272;11.070;2023-06-14T03:57:21;8.23;;;6.05;;
16029;SDS011;34770;49.272;11.070;2023-06-14T03:59:46;7.30;;;6.15;;
16029;SDS011;34770;49.272;11.070;2023-06-14T04:02:12;7.90;;;5.97;;
16029;SDS011;34770;49.272;11.070;2023-06-14T04:04:40;8.18;;;6.10;;
16029;SDS011;34770;49.272;11.070;2023-06-14T04:07:08;7.07;;;6.07;;
16029;SDS011;34770;49.272;11.070;2023-06-14T04:09:33;8.07;;;7.28;;
16029;SDS011;34770;49.272;11.070;2023-06-14T04:11:59;7.32;;;6.63;;
16029;SDS011;34770;49.272;11.070;2023-06-14T04:14:24;7.32;;;6.05;;
16029;SDS011;34770;49.272;11.070;2023-06-14T04:16:49;10.38;;;6.40;;
16029;SDS011;34770;49.272;11.070;2023-06-14T04:19:15;6.85;;;6.15;;
16029;SDS011;34770;49.272;11.070;2023-06-14T04:21:41;6.72;;;6.03;;
16029;SDS011;34770;49.272;11.070;2023-06-14T04:24:06;6.10;;;5.55;;
16029;SDS011;34770;49.272;11.070;2023-06-14T04:26:48;8.45;;;6.60;;
16029;SDS011;34770;49.272;11.070;2023-06-14T04:29:14;6.93;;;5.97;;
16029;SDS011;34770;49.272;11.070;2023-06-14T04:31:41;6.32;;;5.72;;
16029;SDS011;34770;49.272;11.070;2023-06-14T04:34:08;7.15;;;5.75;;
16029;SDS011;34770;49.272;11.070;2023-06-14T04:36:33;6.03;;;5.43;;
16029;SDS011;34770;49.272;11.070;2023-06-14T04:39:02;5.80;;;5.28;;
16029;SDS011;34770;49.272;11.070;2023-06-14T04:41:28;12.80;;;7.05;;
16029;SDS011;34770;49.272;11.070;2023-06-14T04:43:56;10.48;;;6.68;;
16029;SDS011;34770;49.272;11.070;2023-06-14T04:46:23;6.25;;;5.65;;
16029;SDS011;34770;49.272;11.070;2023-06-14T04:48:49;8.90;;;6.28;;
16029;SDS011;34770;49.272;11.070;2023-06-14T04:51:15;8.80;;;6.38;;
16029;SDS011;34770;49.272;11.070;2023-06-14T04:53:41;6.13;;;5.50;;
16029;SDS011;34770;49.272;11.070;2023-06-14T04:56:08;6.88;;;6.20;;
16029;SDS011;34770;49.272;11.070;2023-06-14T04:58:34;8.43;;;5.93;;
16029;SDS011;34770;49.272;11.070;2023-06-14T05:01:00;6.45;;;5.75;;
16029;SDS011;34770;49.272;11.070;2023-06-14T05:03:26;7.22;;;6.53;;
16029;SDS011;34770;49.272;11.070;2023-06-14T05:05:52;6.03;;;5.43;;
16029;SDS011;34770;49.272;11.070;2023-06-14T05:08:18;9.65;;;6.53;;
16029;SDS011;34770;49.272;11.070;2023-06-14T05:10:44;7.90;;;6.05;;
16029;SDS011;34770;49.272;11.070;2023-06-14T05:13:09;6.38;;;4.90;;
16029;SDS011;34770;49.272;11.070;2023-06-14T05:15:35;7.45;;;5.97;;
16029;SDS011;34770;49.272;11.070;2023-06-14T05:18:00;9.77;;;4.72;;
16029;SDS011;34770;49.272;11.070;2023-06-14T05:20:26;8.45;;;5.32;;
16029;SDS011;34770;49.272;11.070;2023-06-14T05:22:54;8.65;;;5.18;;
16029;SDS011;34770;49.272;11.070;2023-06-14T05:25:22;5.35;;;4.85;;
16029;SDS011;34770;49.272;11.070;2023-06-14T05:27:48;6.18;;;4.45;;
16029;SDS011;34770;49.272;11.070;2023-06-14T05:30:14;7.22;;;5.03;;
16029;SDS011;34770;49.272;11.070;2023-06-14T05:32:40;5.13;;;4.43;;
16029;SDS011;34770;49.272;11.070;2023-06-14T05:35:06;5.82;;;4.25;;
16029;SDS011;34770;49.272;11.070;2023-06-14T05:37:32;6.50;;;4.90;;
16029;SDS011;34770;49.272;11.070;2023-06-14T05:39:57;9.93;;;4.22;;
16029;SDS011;34770;49.272;11.070;2023-06-14T05:42:22;4.43;;;4.03;;
16029;SDS011;34770;49.272;11.070;2023-06-14T05:44:48;10.70;;;4.50;;
16029;SDS011;34770;49.272;11.070;2023-06-14T05:47:13;5.40;;;4.68;;
16029;SDS011;34770;49.272;11.070;2023-06-14T05:49:42;6.40;;;4.20;;
16029;SDS011;34770;49.272;11.070;2023-06-14T05:52:07;5.00;;;4.40;;
16029;SDS011;34770;49.272;11.070;2023-06-14T05:54:33;5.20;;;4.07;;
16029;SDS011;34770;49.272;11.070;2023-06-14T05:56:58;4.30;;;3.83;;
16029;SDS011;34770;49.272;11.070;2023-06-14T05:59:26;4.45;;;4.05;;
16029;SDS011;34770;49.272;11.070;2023-06-14T06:01:52;4.63;;;3.95;;
16029;SDS011;34770;49.272;11.070;2023-06-14T06:04:17;4.22;;;3.50;;
16029;SDS011;34770;49.272;11.070;2023-06-14T06:06:43;4.00;;;3.67;;
16029;SDS011;34770;49.272;11.070;2023-06-14T06:09:08;6.43;;;4.03;;
16029;SDS011;34770;49.272;11.070;2023-06-14T06:11:33;4.00;;;3.70;;
16029;SDS011;34770;49.272;11.070;2023-06-14T06:13:59;4.80;;;3.78;;
16029;SDS011;34770;49.272;11.070;2023-06-14T06:16:24;6.47;;;4.07;;
16029;SDS011;34770;49.272;11.070;2023-06-14T06:18:49;5.88;;;4.35;;
16029;SDS011;34770;49.272;11.070;2023-06-14T06:21:15;5.60;;;4.03;;
16029;SDS011;34770;49.272;11.070;2023-06-14T06:23:40;4.28;;;3.88;;
16029;SDS011;34770;49.272;11.070;2023-06-14T06:26:06;6.22;;;3.83;;
16029;SDS011;34770;49.272;11.070;2023-06-14T06:28:32;4.03;;;3.63;;
16029;SDS011;34770;49.272;11.070;2023-06-14T06:30:57;5.43;;;3.28;;
16029;SDS011;34770;49.272;11.070;2023-06-14T06:33:22;7.15;;;3.53;;
16029;SDS011;34770;49.272;11.070;2023-06-14T06:35:48;6.25;;;3.88;;
16029;SDS011;34770;49.272;11.070;2023-06-14T06:38:14;4.32;;;3.63;;
16029;SDS011;34770;49.272;11.070;2023-06-14T06:40:39;4.15;;;3.75;;
16029;SDS011;34770;49.272;11.070;2023-06-14T06:43:05;6.40;;;3.78;;
16029;SDS011;34770;49.272;11.070;2023-06-14T06:45:30;4.18;;;3.78;;
16029;SDS011;34770;49.272;11.070;2023-06-14T06:47:55;3.33;;;3.03;;
16029;SDS011;34770;49.272;11.070;2023-06-14T06:50:21;4.95;;;3.95;;
16029;SDS011;34770;49.272;11.070;2023-06-14T06:52:48;3.65;;;3.35;;
16029;SDS011;34770;49.272;11.070;2023-06-14T06:55:13;8.30;;;3.42;;
16029;SDS011;34770;49.272;11.070;2023-06-14T06:57:39;3.22;;;3.03;;
16029;SDS011;34770;49.272;11.070;2023-06-14T07:00:05;4.55;;;4.05;;
16029;SDS011;34770;49.272;11.070;2023-06-14T07:02:34;5.18;;;3.50;;
16029;SDS011;34770;49.272;11.070;2023-06-14T07:04:59;7.22;;;3.15;;
16029;SDS011;34770;49.272;11.070;2023-06-14T07:07:25;6.63;;;3.60;;
16029;SDS011;34770;49.272;11.070;2023-06-14T07:09:50;3.97;;;3.55;;
16029;SDS011;34770;49.272;11.070;2023-06-14T07:12:16;3.92;;;3.47;;
16029;SDS011;34770;49.272;11.070;2023-06-14T07:14:41;5.20;;;3.53;;
16029;SDS011;34770;49.272;11.070;2023-06-14T07:17:06;4.80;;;3.08;;
16029;SDS011;34770;49.272;11.070;2023-06-14T07:19:32;6.15;;;3.35;;
16029;SDS011;34770;49.272;11.070;2023-06-14T07:21:58;6.18;;;3.70;;
16029;SDS011;34770;49.272;11.070;2023-06-14T07:24:23;3.95;;;3.40;;
16029;SDS011;34770;49.272;11.070;2023-06-14T07:26:49;4.13;;;3.55;;
16029;SDS011;34770;49.272;11.070;2023-06-14T07:29:14;7.53;;;3.67;;
16029;SDS011;34770;49.272;11.070;2023-06-14T07:31:41;3.95;;;3.60;;
16029;SDS011;34770;49.272;11.070;2023-06-14T07:34:06;5.63;;;3.47;;
16029;SDS011;34770;49.272;11.070;2023-06-14T07:36:32;4.53;;;3.30;;
16029;SDS011;34770;49.272;11.070;2023-06-14T07:38:57;4.43;;;3.58;;
16029;SDS011;34770;49.272;11.070;2023-06-14T07:41:23;5.07;;;2.97;;
16029;SDS011;34770;49.272;11.070;2023-06-14T07:43:51;7.15;;;3.35;;
16029;SDS011;34770;49.272;11.070;2023-06-14T07:46:17;3.75;;;2.78;;
16029;SDS011;34770;49.272;11.070;2023-06-14T07:48:42;4.28;;;3.50;;
16029;SDS011;34770;49.272;11.070;2023-06-14T07:51:08;3.08;;;2.80;;
16029;SDS011;34770;49.272;11.070;2023-06-14T07:53:33;5.43;;;3.95;;
16029;SDS011;34770;49.272;11.070;2023-06-14T07:55:58;4.93;;;3.10;;
16029;SDS011;34770;49.272;11.070;2023-06-14T07:58:25;3.95;;;2.88;;
16029;SDS011;34770;49.272;11.070;2023-06-14T08:00:50;7.97;;;3.30;;
16029;SDS011;34770;49.272;11.070;2023-06-14T08:03:16;5.53;;;3.50;;
16029;SDS011;34770;49.272;11.070;2023-06-14T08:05:42;4.28;;;3.35;;
16029;SDS011;34770;49.272;11.070;2023-06-14T08:08:07;5.25;;;3.75;;
16029;SDS011;34770;49.272;11.070;2023-06-14T08:13:09;2.80;;;2.60;;
16029;SDS011;34770;49.272;11.070;2023-06-14T08:15:35;4.07;;;3.20;;
16029;SDS011;34770;49.272;11.070;2023-06-14T08:18:00;7.63;;;3.10;;
16029;SDS011;34770;49.272;11.070;2023-06-14T08:20:26;3.80;;;3.35;;
16029;SDS011;34770;49.272;11.070;2023-06-14T08:22:51;3.60;;;3.30;;
16029;SDS011;34770;49.272;11.070;2023-06-14T08:25:20;5.38;;;2.85;;
16029;SDS011;34770;49.272;11.070;2023-06-14T08:27:45;2.90;;;2.70;;
16029;SDS011;34770;49.272;11.070;2023-06-14T08:30:11;4.75;;;2.85;;
16029;SDS011;34770;49.272;11.070;2023-06-14T08:32:37;3.33;;;3.03;;
16029;SDS011;34770;49.272;11.070;2023-06-14T08:35:03;5.90;;;3.05;;
16029;SDS011;34770;49.272;11.070;2023-06-14T08:37:29;4.88;;;2.92;;
16029;SDS011;34770;49.272;11.070;2023-06-14T08:39:55;3.80;;;2.85;;
16029;SDS011;34770;49.272;11.070;2023-06-14T08:42:21;6.03;;;2.95;;
16029;SDS011;34770;49.272;11.070;2023-06-14T08:44:49;3.45;;;2.75;;
16029;SDS011;34770;49.272;11.070;2023-06-14T08:47:14;3.83;;;2.58;;
16029;SDS011;34770;49.272;11.070;2023-06-14T08:49:42;5.20;;;3.15;;
16029;SDS011;34770;49.272;11.070;2023-06-14T08:52:12;2.85;;;2.40;;
16029;SDS011;34770;49.272;11.070;2023-06-14T08:54:38;3.28;;;2.60;;
16029;SDS011;34770;49.272;11.070;2023-06-14T08:57:09;3.25;;;2.85;;
16029;SDS011;34770;49.272;11.070;2023-06-14T08:59:38;3.90;;;3.00;;
16029;SDS011;34770;49.272;11.070;2023-06-14T09:02:12;2.95;;;2.55;;
16029;SDS011;34770;49.272;11.070;2023-06-14T09:04:40;3.10;;;2.50;;
16029;SDS011;34770;49.272;11.070;2023-06-14T09:07:05;3.03;;;2.60;;
16029;SDS011;34770;49.272;11.070;2023-06-14T09:09:31;4.82;;;2.78;;
16029;SDS011;34770;49.272;11.070;2023-06-14T09:11:57;4.10;;;2.55;;
16029;SDS011;34770;49.272;11.070;2023-06-14T09:14:23;4.85;;;3.00;;
16029;SDS011;34770;49.272;11.070;2023-06-14T09:16:53;3.72;;;2.65;;
16029;SDS011;34770;49.272;11.070;2023-06-14T09:19:25;4.20;;;2.35;;
16029;SDS011;34770;49.272;11.070;2023-06-14T09:21:51;5.72;;;3.00;;
16029;SDS011;34770;49.272;11.070;2023-06-14T09:24:18;3.10;;;2.60;;
16029;SDS011;34770;49.272;11.070;2023-06-14T09:26:46;3.42;;;2.80;;
16029;SDS011;34770;49.272;11.070;2023-06-14T09:29:12;2.70;;;2.45;;
16029;SDS011;34770;49.272;11.070;2023-06-14T09:31:38;4.28;;;3.28;;
16029;SDS011;34770;49.272;11.070;2023-06-14T09:34:04;3.30;;;2.80;;
16029;SDS011;34770;49.272;11.070;2023-06-14T09:36:30;4.88;;;3.08;;
16029;SDS011;34770;49.272;11.070;2023-06-14T09:38:57;4.30;;;3.28;;
16029;SDS011;34770;49.272;11.070;2023-06-14T09:44:05;4.90;;;3.00;;
16029;SDS011;34770;49.272;11.070;2023-06-14T09:46:32;3.75;;;3.33;;
16029;SDS011;34770;49.272;11.070;2023-06-14T09:48:58;5.50;;;3.22;;
16029;SDS011;34770;49.272;11.070;2023-06-14T09:51:24;6.30;;;3.50;;
16029;SDS011;34770;49.272;11.070;2023-06-14T09:53:51;4.18;;;3.13;;
16029;SDS011;34770;49.272;11.070;2023-06-14T09:56:19;6.15;;;3.53;;
16029;SDS011;34770;49.272;11.070;2023-06-14T09:58:49;4.40;;;3.13;;
16029;SDS011;34770;49.272;11.070;2023-06-14T10:01:20;3.50;;;3.20;;
16029;SDS011;34770;49.272;11.070;2023-06-14T10:03:47;5.85;;;2.50;;
16029;SDS011;34770;49.272;11.070;2023-06-14T10:06:18;5.70;;;3.10;;
16029;SDS011;34770;49.272;11.070;2023-06-14T10:08:49;5.85;;;3.40;;
16029;SDS011;34770;49.272;11.070;2023-06-14T10:11:16;4.97;;;2.97;;
16029;SDS011;34770;49.272;11.070;2023-06-14T10:13:42;3.65;;;3.25;;
16029;SDS011;34770;49.272;11.070;2023-06-14T10:16:18;3.55;;;2.97;;
16029;SDS011;34770;49.272;11.070;2023-06-14T10:23:52;4.90;;;3.58;;
16029;SDS011;34770;49.272;11.070;2023-06-14T10:26:21;5.47;;;3.30;;
16029;SDS011;34770;49.272;11.070;2023-06-14T10:29:30;5.40;;;3.25;;
16029;SDS011;34770;49.272;11.070;2023-06-14T10:31:46;3.63;;;3.10;;
16029;SDS011;34770;49.272;11.070;2023-06-14T10:34:23;4.88;;;3.40;;
16029;SDS011;34770;49.272;11.070;2023-06-14T10:39:38;3.50;;;3.20;;
16029;SDS011;34770;49.272;11.070;2023-06-14T10:42:09;3.08;;;2.75;;
16029;SDS011;34770;49.272;11.070;2023-06-14T10:47:20;5.95;;;3.60;;
16029;SDS011;34770;49.272;11.070;2023-06-14T10:49:49;4.78;;;3.47;;
16029;SDS011;34770;49.272;11.070;2023-06-14T10:52:16;5.30;;;3.10;;
16029;SDS011;34770;49.272;11.070;2023-06-14T10:55:01;3.90;;;3.10;;
16029;SDS011;34770;49.272;11.070;2023-06-14T10:58:10;2.83;;;2.63;;
16029;SDS011;34770;49.272;11.070;2023-06-14T11:00:29;3.75;;;2.90;;
16029;SDS011;34770;49.272;11.070;2023-06-14T11:05:58;4.38;;;3.35;;
16029;SDS011;34770;49.272;11.070;2023-06-14T11:11:22;3.47;;;2.63;;
16029;SDS011;34770;49.272;11.070;2023-06-14T11:13:48;3.22;;;2.92;;
16029;SDS011;34770;49.272;11.070;2023-06-14T11:16:15;5.40;;;3.30;;
16029;SDS011;34770;49.272;11.070;2023-06-14T11:18:41;4.15;;;3.20;;
16029;SDS011;34770;49.272;11.070;2023-06-14T11:21:08;4.07;;;3.33;;
16029;SDS011;34770;49.272;11.070;2023-06-14T11:23:34;5.65;;;2.95;;
16029;SDS011;34770;49.272;11.070;2023-06-14T11:26:00;3.80;;;3.08;;
16029;SDS011;34770;49.272;11.070;2023-06-14T11:28:36;5.78;;;3.03;;
16029;SDS011;34770;49.272;11.070;2023-06-14T11:31:03;6.13;;;3.13;;
16029;SDS011;34770;49.272;11.070;2023-06-14T11:33:29;5.03;;;2.85;;
16029;SDS011;34770;49.272;11.070;2023-06-14T11:35:54;3.13;;;2.92;;
16029;SDS011;34770;49.272;11.070;2023-06-14T11:38:20;3.75;;;2.50;;
16029;SDS011;34770;49.272;11.070;2023-06-14T11:40:45;3.80;;;3.00;;
16029;SDS011;34770;49.272;11.070;2023-06-14T11:43:10;5.72;;;3.20;;
16029;SDS011;34770;49.272;11.070;2023-06-14T11:45:37;3.60;;;3.30;;
16029;SDS011;34770;49.272;11.070;2023-06-14T11:48:03;6.70;;;3.20;;
16029;SDS011;34770;49.272;11.070;2023-06-14T11:50:28;3.17;;;2.95;;
16029;SDS011;34770;49.272;11.070;2023-06-14T11:52:57;3.55;;;3.13;;
16029;SDS011;34770;49.272;11.070;2023-06-14T11:55:38;4.40;;;2.97;;
16029;SDS011;34770;49.272;11.070;2023-06-14T11:58:05;3.60;;;2.80;;
16029;SDS011;34770;49.272;11.070;2023-06-14T12:00:31;3.03;;;2.72;;
16029;SDS011;34770;49.272;11.070;2023-06-14T12:02:56;4.72;;;3.13;;
16029;SDS011;34770;49.272;11.070;2023-06-14T12:05:22;6.03;;;2.97;;
16029;SDS011;34770;49.272;11.070;2023-06-14T12:07:49;7.55;;;3.15;;
16029;SDS011;34770;49.272;11.070;2023-06-14T12:10:15;3.42;;;3.05;;
16029;SDS011;34770;49.272;11.070;2023-06-14T12:12:41;4.32;;;2.97;;
16029;SDS011;34770;49.272;11.070;2023-06-14T12:15:07;3.53;;;2.75;;
16029;SDS011;34770;49.272;11.070;2023-06-14T12:17:36;5.47;;;3.33;;
16029;SDS011;34770;49.272;11.070;2023-06-14T12:20:07;6.05;;;2.63;;
16029;SDS011;34770;49.272;11.070;2023-06-14T12:22:38;5.20;;;3.08;;
16029;SDS011;34770;49.272;11.070;2023-06-14T12:25:04;4.50;;;3.13;;
16029;SDS011;34770;49.272;11.070;2023-06-14T12:27:30;4.13;;;3.25;;
16029;SDS011;34770;49.272;11.070;2023-06-14T12:30:02;3.47;;;2.67;;
16029;SDS011;34770;49.272;11.070;2023-06-14T12:32:28;5.93;;;2.45;;
16029;SDS011;34770;49.272;11.070;2023-06-14T12:34:54;4.35;;;3.20;;
16029;SDS011;34770;49.272;11.070;2023-06-14T12:37:20;4.40;;;3.28;;
16029;SDS011;34770;49.272;11.070;2023-06-14T12:39:46;5.78;;;2.80;;
16029;SDS011;34770;49.272;11.070;2023-06-14T12:42:11;6.95;;;2.85;;
16029;SDS011;34770;49.272;11.070;2023-06-14T12:44:38;3.45;;;2.20;;
16029;SDS011;34770;49.272;11.070;2023-06-14T12:47:06;3.45;;;3.22;;
16029;SDS011;34770;49.272;11.070;2023-06-14T12:49:32;4.18;;;2.78;;
16029;SDS011;34770;49.272;11.070;2023-06-14T12:51:58;3.03;;;2.58;;
16029;SDS011;34770;49.272;11.070;2023-06-14T12:54:23;6.07;;;2.60;;
16029;SDS011;34770;49.272;11.070;2023-06-14T12:56:50;4.32;;;2.90;;
16029;SDS011;34770;49.272;11.070;2023-06-14T12:59:16;3.08;;;2.78;;
16029;SDS011;34770;49.272;11.070;2023-06-14T13:01:43;7.57;;;2.75;;
16029;SDS011;34770;49.272;11.070;2023-06-14T13:04:09;3.15;;;2.83;;
16029;SDS011;34770;49.272;11.070;2023-06-14T13:06:35;5.13;;;2.58;;
16029;SDS011;34770;49.272;11.070;2023-06-14T13:09:00;5.25;;;3.17;;
16029;SDS011;34770;49.272;11.070;2023-06-14T13:11:26;3.35;;;3.05;;
16029;SDS011;34770;49.272;11.070;2023-06-14T13:13:52;3.63;;;2.85;;
16029;SDS011;34770;49.272;11.070;2023-06-14T13:16:17;5.93;;;2.92;;
16029;SDS011;34770;49.272;11.070;2023-06-14T13:18:43;5.45;;;3.17;;
16029;SDS011;34770;49.272;11.070;2023-06-14T13:21:08;3.50;;;2.80;;
16029;SDS011;34770;49.272;11.070;2023-06-14T13:23:33;3.00;;;2.70;;
16029;SDS011;34770;49.272;11.070;2023-06-14T13:25:59;5.35;;;2.83;;
16029;SDS011;34770;49.272;11.070;2023-06-14T13:28:24;7.00;;;2.60;;
16029;SDS011;34770;49.272;11.070;2023-06-14T13:30:49;2.53;;;2.33;;
16029;SDS011;34770;49.272;11.070;2023-06-14T13:33:15;5.32;;;3.15;;
16029;SDS011;34770;49.272;11.070;2023-06-14T13:35:41;3.50;;;2.60;;
16029;SDS011;34770;49.272;11.070;2023-06-14T13:38:07;5.38;;;3.40;;
16029;SDS011;34770;49.272;11.070;2023-06-14T13:40:34;4.40;;;2.38;;
16029;SDS011;34770;49.272;11.070;2023-06-14T13:42:59;4.10;;;2.55;;
16029;SDS011;34770;49.272;11.070;2023-06-14T13:45:25;3.55;;;2.95;;
16029;SDS011;34770;49.272;11.070;2023-06-14T13:47:50;4.20;;;2.80;;
16029;SDS011;34770;49.272;11.070;2023-06-14T13:50:16;5.78;;;2.67;;
16029;SDS011;34770;49.272;11.070;2023-06-14T13:52:42;3.70;;;2.80;;
16029;SDS011;34770;49.272;11.070;2023-06-14T13:55:08;3.00;;;2.75;;
16029;SDS011;34770;49.272;11.070;2023-06-14T13:57:36;3.17;;;2.75;;
16029;SDS011;34770;49.272;11.070;2023-06-14T14:00:02;5.65;;;2.85;;
16029;SDS011;34770;49.272;11.070;2023-06-14T14:02:28;4.15;;;3.00;;
16029;SDS011;34770;49.272;11.070;2023-06-14T14:04:54;4.28;;;3.10;;
16029;SDS011;34770;49.272;11.070;2023-06-14T14:07:20;5.05;;;2.88;;
16029;SDS011;34770;49.272;11.070;2023-06-14T14:09:47;5.65;;;3.17;;
16029;SDS011;34770;49.272;11.070;2023-06-14T14:12:13;2.95;;;2.65;;
16029;SDS011;34770;49.272;11.070;2023-06-14T14:14:39;8.00;;;3.58;;
16029;SDS011;34770;49.272;11.070;2023-06-14T14:17:05;4.82;;;2.95;;
16029;SDS011;34770;49.272;11.070;2023-06-14T14:19:31;4.88;;;2.42;;
16029;SDS011;34770;49.272;11.070;2023-06-14T14:21:57;3.42;;;2.88;;
16029;SDS011;34770;49.272;11.070;2023-06-14T14:24:22;3.80;;;3.20;;
16029;SDS011;34770;49.272;11.070;2023-06-14T14:26:48;3.42;;;2.92;;
16029;SDS011;34770;49.272;11.070;2023-06-14T14:29:14;3.92;;;2.67;;
16029;SDS011;34770;49.272;11.070;2023-06-14T14:31:40;4.63;;;2.83;;
16029;SDS011;34770;49.272;11.070;2023-06-14T14:34:06;3.95;;;3.08;;
16029;SDS011;34770;49.272;11.070;2023-06-14T14:36:31;4.35;;;2.28;;
16029;SDS011;34770;49.272;11.070;2023-06-14T14:38:58;4.35;;;2.80;;
16029;SDS011;34770;49.272;11.070;2023-06-14T14:41:23;5.15;;;3.10;;
16029;SDS011;34770;49.272;11.070;2023-06-14T14:43:49;3.92;;;3.08;;
16029;SDS011;34770;49.272;11.070;2023-06-14T14:46:14;4.05;;;2.95;;
16029;SDS011;34770;49.272;11.070;2023-06-14T14:48:41;3.53;;;3.05;;
16029;SDS011;34770;49.272;11.070;2023-06-14T14:51:07;4.55;;;2.60;;
16029;SDS011;34770;49.272;11.070;2023-06-14T14:53:32;3.67;;;2.75;;
16029;SDS011;34770;49.272;11.070;2023-06-14T14:55:57;2.90;;;2.50;;
16029;SDS011;34770;49.272;11.070;2023-06-14T14:58:23;2.75;;;2.50;;